createdAt,value
2022-09-07T00:01:07.471Z,16.54
2022-09-07T00:03:36.034Z,16.51
2022-09-07T00:06:11.349Z,16.47
2022-09-07T00:08:43.700Z,16.42
2022-09-07T00:11:17.971Z,16.40
2022-09-07T00:13:49.363Z,16.32
2022-09-07T00:16:25.762Z,16.30
2022-09-07T00:18:56.195Z,16.22
2022-09-07T00:21:24.737Z,16.16
2022-09-07T00:23:54.216Z,16.10
2022-09-07T00:26:29.663Z,16.03
2022-09-07T00:29:00.826Z,15.96
2022-09-07T00:31:30.831Z,15.94
2022-09-07T00:34:01.203Z,15.92
2022-09-07T00:36:29.770Z,15.89
2022-09-07T00:38:58.399Z,15.89
2022-09-07T00:41:26.097Z,15.93
2022-09-07T00:43:57.980Z,15.92
2022-09-07T00:46:29.924Z,15.94
2022-09-07T00:49:19.901Z,15.90
2022-09-07T00:51:54.147Z,15.90
2022-09-07T00:54:39.970Z,15.93
2022-09-07T00:57:07.882Z,15.97
2022-09-07T00:59:45.204Z,16.00
2022-09-07T01:02:17.264Z,16.01
2022-09-07T01:04:50.802Z,15.99
2022-09-07T01:07:19.197Z,15.96
2022-09-07T01:09:47.587Z,16.00
2022-09-07T01:12:15.233Z,15.97
2022-09-07T01:14:50.699Z,15.94
2022-09-07T01:18:16.362Z,15.93
2022-09-07T01:21:08.279Z,15.96
2022-09-07T01:24:19.259Z,15.97
2022-09-07T01:27:44.186Z,15.92
2022-09-07T01:30:16.977Z,15.86
2022-09-07T01:33:09.742Z,15.87
2022-09-07T01:36:12.710Z,15.82
2022-09-07T01:38:53.166Z,15.87
2022-09-07T01:41:38.854Z,15.97
2022-09-07T01:44:24.978Z,16.03
2022-09-07T01:47:35.960Z,16.06
2022-09-07T01:50:16.645Z,16.09
2022-09-07T01:53:06.328Z,16.03
2022-09-07T01:55:47.932Z,16.00
2022-09-07T01:58:23.273Z,16.01
2022-09-07T02:01:00.267Z,16.07
2022-09-07T02:03:42.195Z,16.07
2022-09-07T02:06:24.442Z,16.17
2022-09-07T02:09:06.477Z,16.21
2022-09-07T02:11:39.441Z,16.24
2022-09-07T02:14:37.626Z,16.16
2022-09-07T02:17:21.583Z,15.90
2022-09-07T02:20:04.909Z,15.83
2022-09-07T02:22:39.125Z,15.81
2022-09-07T02:25:11.091Z,15.85
2022-09-07T02:27:53.028Z,15.93
2022-09-07T02:30:20.606Z,16.03
2022-09-07T02:32:49.066Z,16.10
2022-09-07T02:35:17.066Z,16.17
2022-09-07T02:37:45.735Z,16.16
2022-09-07T02:40:14.796Z,16.16
2022-09-07T02:42:45.386Z,16.16
2022-09-07T02:45:15.601Z,16.10
2022-09-07T02:48:28.371Z,16.03
2022-09-07T02:51:02.437Z,15.96
2022-09-07T02:53:39.448Z,15.93
2022-09-07T02:56:18.777Z,15.92
2022-09-07T02:59:21.344Z,15.97
2022-09-07T03:02:11.809Z,16.04
2022-09-07T03:05:15.035Z,16.14
2022-09-07T03:07:59.463Z,16.25
2022-09-07T03:10:28.667Z,16.30
2022-09-07T03:12:56.296Z,16.37
2022-09-07T03:15:27.784Z,16.38
2022-09-07T03:17:55.338Z,16.38
2022-09-07T03:20:23.295Z,16.37
2022-09-07T03:22:52.809Z,16.35
2022-09-07T03:25:20.759Z,16.35
2022-09-07T03:27:48.323Z,16.37
2022-09-07T03:30:15.964Z,16.34
2022-09-07T03:32:43.510Z,16.32
2022-09-07T03:35:14.318Z,16.35
2022-09-07T03:37:42.067Z,16.35
2022-09-07T03:40:13.577Z,16.38
2022-09-07T03:42:41.934Z,16.38
2022-09-07T03:45:11.100Z,16.42
2022-09-07T03:47:39.142Z,16.42
2022-09-07T03:50:07.806Z,16.44
2022-09-07T03:52:36.262Z,16.40
2022-09-07T03:55:05.112Z,16.37
2022-09-07T03:57:32.761Z,16.35
2022-09-07T04:00:00.350Z,16.32
2022-09-07T04:02:27.972Z,16.32
2022-09-07T04:04:55.515Z,16.28
2022-09-07T04:07:23.148Z,16.28
2022-09-07T04:09:53.571Z,16.28
2022-09-07T04:12:21.046Z,16.30
2022-09-07T04:14:49.096Z,16.31
2022-09-07T04:17:16.619Z,16.35
2022-09-07T04:19:44.252Z,16.44
2022-09-07T04:22:11.732Z,16.42
2022-09-07T04:24:39.239Z,16.41
2022-09-07T04:27:06.809Z,16.47
2022-09-07T04:29:34.397Z,16.52
2022-09-07T04:32:02.643Z,16.55
2022-09-07T04:34:30.292Z,16.59
2022-09-07T04:36:57.846Z,16.67
2022-09-07T04:39:25.544Z,16.73
2022-09-07T04:41:53.098Z,16.82
2022-09-07T04:44:20.626Z,16.88
2022-09-07T04:46:48.093Z,16.96
2022-09-07T04:49:15.601Z,17.06
2022-09-07T04:51:44.292Z,17.06
2022-09-07T04:54:12.378Z,17.09
2022-09-07T04:56:39.960Z,17.19
2022-09-07T04:59:07.580Z,17.30
2022-09-07T05:01:35.329Z,17.41
2022-09-07T05:04:05.078Z,17.50
2022-09-07T05:06:33.278Z,17.41
2022-09-07T05:09:01.276Z,17.53
2022-09-07T05:11:30.044Z,17.67
2022-09-07T05:13:59.759Z,17.72
2022-09-07T05:16:28.718Z,17.74
2022-09-07T05:19:01.565Z,17.77
2022-09-07T05:21:34.499Z,17.82
2022-09-07T05:24:02.909Z,18.08
2022-09-07T05:26:33.869Z,18.29
2022-09-07T05:31:51.842Z,18.88
2022-09-07T05:34:35.011Z,19.23
2022-09-07T05:37:02.768Z,19.26
2022-09-07T05:39:30.867Z,19.53
2022-09-07T05:41:58.412Z,19.94
2022-09-07T05:47:09.763Z,20.65
2022-09-07T05:49:37.581Z,20.79
2022-09-07T05:52:05.339Z,21.17
2022-09-07T05:54:32.893Z,21.55
2022-09-07T05:57:00.442Z,21.49
2022-09-07T05:59:27.927Z,21.68
2022-09-07T06:01:55.643Z,21.82
2022-09-07T06:04:23.258Z,21.86
2022-09-07T06:07:20.151Z,22.03
2022-09-07T06:12:26.492Z,23.08
2022-09-07T06:14:54.007Z,23.57
2022-09-07T06:17:21.479Z,24.21
2022-09-07T06:19:48.994Z,23.73
2022-09-07T06:22:17.008Z,23.46
2022-09-07T06:24:44.534Z,23.84
2022-09-07T06:27:12.419Z,24.52
2022-09-07T06:29:40.035Z,25.07
2022-09-07T06:34:55.188Z,25.53
2022-09-07T06:37:22.864Z,25.49
2022-09-07T06:39:50.385Z,25.98
2022-09-07T06:42:17.677Z,26.65
2022-09-07T06:44:45.066Z,26.68
2022-09-07T06:47:12.413Z,26.68
2022-09-07T06:49:39.700Z,27.38
2022-09-07T06:52:07.163Z,27.75
2022-09-07T06:57:21.941Z,28.16
2022-09-07T06:59:49.477Z,27.89
2022-09-07T07:02:16.826Z,28.37
2022-09-07T07:04:44.236Z,28.68
2022-09-07T07:07:13.938Z,28.46
2022-09-07T07:09:42.288Z,28.33
2022-09-07T07:12:10.963Z,27.96
2022-09-07T07:14:44.073Z,27.58
2022-09-07T07:17:13.415Z,27.69
2022-09-07T07:19:41.217Z,27.37
2022-09-07T07:22:45.549Z,26.79
2022-09-07T07:24:56.368Z,26.20
2022-09-07T07:27:24.144Z,26.23
2022-09-07T07:29:52.679Z,26.01
2022-09-07T07:32:20.236Z,26.01
2022-09-07T07:34:47.656Z,26.21
2022-09-07T07:37:16.169Z,27.14
2022-09-07T07:42:32.706Z,28.15
2022-09-07T07:47:51.642Z,29.74
2022-09-07T07:50:34.933Z,29.49
2022-09-07T07:55:51.402Z,28.47
2022-09-07T07:58:19.629Z,28.49
2022-09-07T08:00:54.746Z,28.12
2022-09-07T08:03:24.973Z,28.02
2022-09-07T08:05:52.933Z,27.98
2022-09-07T08:08:20.874Z,28.82
2022-09-07T08:10:48.473Z,29.38
2022-09-07T08:13:17.137Z,30.21
2022-09-07T08:15:45.287Z,30.18
2022-09-07T08:18:14.969Z,30.42
2022-09-07T08:20:43.085Z,30.56
2022-09-07T08:23:11.703Z,30.27
2022-09-07T08:25:39.471Z,30.53
2022-09-07T08:28:07.138Z,30.96
2022-09-07T08:30:35.058Z,31.38
2022-09-07T08:33:02.790Z,32.06
2022-09-07T08:35:30.304Z,31.13
2022-09-07T08:37:57.809Z,30.48
2022-09-07T08:40:25.272Z,30.53
2022-09-07T08:43:28.880Z,30.44
2022-09-07T08:46:24.641Z,30.61
2022-09-07T08:48:53.178Z,31.06
2022-09-07T08:51:36.278Z,30.55
2022-09-07T08:54:05.537Z,30.82
2022-09-07T08:57:20.608Z,31.48
2022-09-07T08:59:48.600Z,31.23
2022-09-07T09:02:38.347Z,31.24
2022-09-07T09:06:11.570Z,30.89
2022-09-07T09:08:28.667Z,30.86
2022-09-07T09:11:12.073Z,30.45
2022-09-07T09:14:02.729Z,31.13
2022-09-07T09:16:35.491Z,32.32
2022-09-07T09:19:55.510Z,32.17
2022-09-07T09:22:28.380Z,32.23
2022-09-07T09:25:20.363Z,32.67
2022-09-07T09:27:49.952Z,33.15
2022-09-07T09:30:22.135Z,33.69
2022-09-07T09:32:52.901Z,33.76
2022-09-07T09:35:32.632Z,33.49
2022-09-07T09:38:03.614Z,33.33
2022-09-07T09:40:35.244Z,32.33
2022-09-07T09:43:20.657Z,32.27
2022-09-07T09:48:48.977Z,34.32
2022-09-07T09:54:30.532Z,35.23
2022-09-07T09:56:58.048Z,34.51
2022-09-07T10:05:50.598Z,35.00
2022-09-07T10:08:23.964Z,35.54
2022-09-07T10:11:04.028Z,35.65
2022-09-07T10:13:53.124Z,36.33
2022-09-07T10:16:41.443Z,36.35
2022-09-07T10:19:36.654Z,35.33
2022-09-07T10:22:22.950Z,35.11
2022-09-07T10:24:51.055Z,35.29
2022-09-07T10:27:40.655Z,35.46
2022-09-07T10:30:16.767Z,34.71
2022-09-07T10:33:14.347Z,35.20
2022-09-07T10:35:58.869Z,35.57
2022-09-07T10:38:34.837Z,35.86
2022-09-07T10:41:09.742Z,35.81
2022-09-07T10:43:50.212Z,35.20
2022-09-07T10:46:56.963Z,35.94
2022-09-07T10:52:49.533Z,36.16
2022-09-07T10:55:28.830Z,34.89
2022-09-07T10:59:01.330Z,34.25
2022-09-07T11:01:42.927Z,35.38
2022-09-07T11:04:44.469Z,34.83
2022-09-07T11:07:50.562Z,35.26
2022-09-07T11:10:33.278Z,35.86
2022-09-07T11:13:05.662Z,35.92
2022-09-07T11:15:42.907Z,36.71
2022-09-07T11:18:35.323Z,37.04
2022-09-07T11:21:10.142Z,37.05
2022-09-07T11:23:45.088Z,36.56
2022-09-07T11:26:47.786Z,36.25
2022-09-07T11:29:36.520Z,36.09
2022-09-07T11:32:15.151Z,36.84
2022-09-07T11:34:52.152Z,35.43
2022-09-07T11:37:35.799Z,35.98
2022-09-07T11:40:31.337Z,36.78
2022-09-07T11:43:16.489Z,36.36
2022-09-07T11:45:59.823Z,35.80
2022-09-07T11:48:43.931Z,34.66
2022-09-07T11:51:39.795Z,34.72
2022-09-07T11:54:53.967Z,33.63
2022-09-07T11:57:54.892Z,33.17
2022-09-07T12:00:55.418Z,33.50
2022-09-07T12:03:44.646Z,34.24
2022-09-07T12:06:35.828Z,34.88
2022-09-07T12:09:48.156Z,33.93
2022-09-07T12:12:24.255Z,33.87
2022-09-07T12:15:15.729Z,34.73
2022-09-07T12:17:54.953Z,35.37
2022-09-07T12:20:45.891Z,34.31
2022-09-07T12:23:16.121Z,33.67
2022-09-07T12:25:47.546Z,34.32
2022-09-07T12:28:37.729Z,34.17
2022-09-07T12:31:12.376Z,32.71
2022-09-07T12:33:41.035Z,32.05
2022-09-07T12:36:26.607Z,32.30
2022-09-07T12:39:25.173Z,32.33
2022-09-07T12:45:29.969Z,32.36
2022-09-07T12:48:04.978Z,32.30
2022-09-07T12:50:56.672Z,32.44
2022-09-07T12:53:42.323Z,32.44
2022-09-07T13:00:27.198Z,31.78
2022-09-07T13:06:03.648Z,31.55
2022-09-07T13:08:33.409Z,31.82
2022-09-07T13:11:19.242Z,31.81
2022-09-07T13:14:05.299Z,31.52
2022-09-07T13:19:51.450Z,31.71
2022-09-07T13:22:31.119Z,31.35
2022-09-07T13:25:27.198Z,31.34
2022-09-07T13:28:13.941Z,31.24
2022-09-07T13:31:12.983Z,31.24
2022-09-07T13:33:51.739Z,31.17
2022-09-07T13:36:47.515Z,31.07
2022-09-07T13:39:21.684Z,30.94
2022-09-07T13:41:56.604Z,30.63
2022-09-07T13:44:33.520Z,30.63
2022-09-07T13:47:31.358Z,30.63
2022-09-07T13:50:26.453Z,30.55
2022-09-07T13:53:37.641Z,30.45
2022-09-07T13:56:40.247Z,30.21
2022-09-07T13:59:21.559Z,30.07
2022-09-07T14:01:50.797Z,30.11
2022-09-07T14:04:41.806Z,30.14
2022-09-07T14:07:20.320Z,30.14
2022-09-07T14:09:51.321Z,30.11
2022-09-07T14:12:21.870Z,29.96
2022-09-07T14:15:47.837Z,30.01
2022-09-07T14:18:22.357Z,29.87
2022-09-07T14:20:53.051Z,29.83
2022-09-07T14:23:30.852Z,29.81
2022-09-07T14:26:19.191Z,29.77
2022-09-07T14:28:53.938Z,29.72
2022-09-07T14:31:24.737Z,29.67
2022-09-07T14:33:56.938Z,29.72
2022-09-07T14:36:48.494Z,29.66
2022-09-07T14:39:20.987Z,29.53
2022-09-07T14:41:49.591Z,29.52
2022-09-07T14:44:34.239Z,29.53
2022-09-07T14:47:29.118Z,29.49
2022-09-07T14:50:05.186Z,29.48
2022-09-07T14:53:33.165Z,29.45
2022-09-07T14:55:41.957Z,29.42
2022-09-07T14:58:15.583Z,29.35
2022-09-07T15:03:40.885Z,29.32
2022-09-07T15:07:00.723Z,29.14
2022-09-07T15:08:57.797Z,29.08
2022-09-07T15:11:33.368Z,29.00
2022-09-07T15:14:17.391Z,28.95
2022-09-07T15:19:50.384Z,28.68
2022-09-07T15:22:19.160Z,28.60
2022-09-07T15:24:48.067Z,28.54
2022-09-07T15:27:28.734Z,28.49
2022-09-07T15:29:56.269Z,28.43
2022-09-07T15:32:23.602Z,28.40
2022-09-07T15:34:51.045Z,28.42
2022-09-07T15:40:22.521Z,28.37
2022-09-07T15:43:19.601Z,28.31
2022-09-07T15:45:37.520Z,28.26
2022-09-07T15:48:05.068Z,28.23
2022-09-07T15:50:32.535Z,28.20
2022-09-07T15:53:00.882Z,28.10
2022-09-07T15:55:28.630Z,28.02
2022-09-07T15:58:10.717Z,27.91
2022-09-07T16:00:39.200Z,27.80
2022-09-07T16:03:07.405Z,27.65
2022-09-07T16:05:35.359Z,27.51
2022-09-07T16:10:55.692Z,27.10
2022-09-07T16:13:24.352Z,26.93
2022-09-07T16:15:51.937Z,26.78
2022-09-07T16:18:19.318Z,26.65
2022-09-07T16:20:47.302Z,26.52
2022-09-07T16:23:16.774Z,26.37
2022-09-07T16:25:58.904Z,26.23
2022-09-07T16:28:26.961Z,26.10
2022-09-07T16:30:55.916Z,25.98
2022-09-07T16:33:31.227Z,25.90
2022-09-07T16:36:02.275Z,25.83
2022-09-07T16:38:47.597Z,25.72
2022-09-07T16:41:17.222Z,25.65
2022-09-07T16:43:46.121Z,25.58
2022-09-07T16:46:16.114Z,25.52
2022-09-07T16:48:44.103Z,25.45
2022-09-07T16:51:13.381Z,25.39
2022-09-07T16:53:41.171Z,25.32
2022-09-07T16:56:14.003Z,25.24
2022-09-07T16:58:46.740Z,25.19
2022-09-07T17:01:19.886Z,25.17
2022-09-07T17:03:49.524Z,25.19
2022-09-07T17:06:18.719Z,25.21
2022-09-07T17:08:47.085Z,25.21
2022-09-07T17:11:17.413Z,25.17
2022-09-07T17:13:45.541Z,25.04
2022-09-07T17:16:15.758Z,24.83
2022-09-07T17:21:36.997Z,24.59
2022-09-07T17:24:06.668Z,24.46
2022-09-07T17:26:34.209Z,24.39
2022-09-07T17:29:01.646Z,24.43
2022-09-07T17:34:19.699Z,24.46
2022-09-07T17:36:47.572Z,24.40
2022-09-07T17:39:17.180Z,24.30
2022-09-07T17:41:46.322Z,24.28
2022-09-07T17:44:13.630Z,24.23
2022-09-07T17:46:41.125Z,24.21
2022-09-07T17:49:16.528Z,24.12
2022-09-07T17:51:45.704Z,24.04
2022-09-07T17:54:15.697Z,23.91
2022-09-07T17:56:44.048Z,23.78
2022-09-07T18:01:59.614Z,23.68
2022-09-07T18:04:28.243Z,23.61
2022-09-07T18:06:55.677Z,23.54
2022-09-07T18:09:23.263Z,23.49
2022-09-07T18:11:51.013Z,23.36
2022-09-07T18:14:19.662Z,23.27
2022-09-07T18:16:49.660Z,23.22
2022-09-07T18:19:18.664Z,23.15
2022-09-07T18:21:48.064Z,23.10
2022-09-07T18:24:19.245Z,23.13
2022-09-07T18:26:52.449Z,23.13
2022-09-07T18:29:37.560Z,23.10
2022-09-07T18:32:09.354Z,23.08
2022-09-07T18:34:39.513Z,23.05
2022-09-07T18:37:08.807Z,23.02
2022-09-07T18:39:36.872Z,22.99
2022-09-07T18:42:04.295Z,22.96
2022-09-07T18:47:27.583Z,22.91
2022-09-07T18:49:55.647Z,22.85
2022-09-07T18:55:10.685Z,22.68
2022-09-07T18:57:38.506Z,22.61
2022-09-07T19:00:08.606Z,22.48
2022-09-07T19:02:36.250Z,22.40
2022-09-07T19:07:51.479Z,22.12
2022-09-07T19:10:19.091Z,21.93
2022-09-07T19:12:46.796Z,21.88
2022-09-07T19:15:14.440Z,21.81
2022-09-07T19:17:41.798Z,21.78
2022-09-07T19:20:09.821Z,21.74
2022-09-07T19:22:37.198Z,21.68
2022-09-07T19:25:06.101Z,21.65
2022-09-07T19:27:33.596Z,21.61
2022-09-07T19:30:01.274Z,21.61
2022-09-07T19:32:28.770Z,21.62
2022-09-07T19:34:56.053Z,21.61
2022-09-07T19:37:27.602Z,21.66
2022-09-07T19:39:55.400Z,21.68
2022-09-07T19:42:23.804Z,21.69
2022-09-07T19:44:51.974Z,21.69
2022-09-07T19:47:20.234Z,21.63
2022-09-07T19:49:47.673Z,21.66
2022-09-07T19:52:15.420Z,21.66
2022-09-07T19:54:42.778Z,21.65
2022-09-07T19:57:10.228Z,21.62
2022-09-07T19:59:37.497Z,21.58
2022-09-07T20:02:04.735Z,21.56
2022-09-07T20:04:32.089Z,21.52
2022-09-07T20:06:59.330Z,21.49
2022-09-07T20:09:27.147Z,21.49
2022-09-07T20:11:54.633Z,21.44
2022-09-07T20:14:22.296Z,21.38
2022-09-07T20:16:49.811Z,21.39
2022-09-07T20:19:17.510Z,21.38
2022-09-07T20:21:44.906Z,21.31
2022-09-07T20:24:12.793Z,21.30
2022-09-07T20:26:40.149Z,21.24
2022-09-07T20:31:55.779Z,21.11
2022-09-07T20:34:23.105Z,21.10
2022-09-07T20:36:50.906Z,20.97
2022-09-07T20:39:19.031Z,20.80
2022-09-07T20:41:47.005Z,20.69
2022-09-07T20:44:14.437Z,20.63
2022-09-07T20:46:42.105Z,20.63
2022-09-07T20:49:09.865Z,20.62
2022-09-07T20:51:37.426Z,20.65
2022-09-07T20:54:04.735Z,20.62
2022-09-07T20:56:31.977Z,20.63
2022-09-07T20:59:01.710Z,20.60
2022-09-07T21:01:30.324Z,20.63
2022-09-07T21:03:59.201Z,20.63
2022-09-07T21:06:28.187Z,20.59
2022-09-07T21:08:57.156Z,20.55
2022-09-07T21:11:32.716Z,20.51
2022-09-07T21:14:02.324Z,20.46
2022-09-07T21:16:30.982Z,20.49
2022-09-07T21:18:59.901Z,20.49
2022-09-07T21:21:29.113Z,20.49
2022-09-07T21:23:59.085Z,20.48
2022-09-07T21:26:28.100Z,20.48
2022-09-07T21:29:00.268Z,20.43
2022-09-07T21:31:29.299Z,20.38
2022-09-07T21:33:58.663Z,20.39
2022-09-07T21:36:27.000Z,20.35
2022-09-07T21:38:54.750Z,20.31
2022-09-07T21:41:23.954Z,20.31
2022-09-07T21:43:58.373Z,20.29
2022-09-07T21:46:26.898Z,20.24
2022-09-07T21:48:55.642Z,20.21
2022-09-07T21:51:23.801Z,20.20
2022-09-07T21:54:00.695Z,20.18
2022-09-07T21:56:29.567Z,20.18
2022-09-07T21:58:59.121Z,20.20
2022-09-07T22:01:28.088Z,20.22
2022-09-07T22:04:01.130Z,20.21
2022-09-07T22:06:28.844Z,20.17
2022-09-07T22:08:56.412Z,20.11
2022-09-07T22:11:26.054Z,20.15
2022-09-07T22:13:55.675Z,20.17
2022-09-07T22:16:23.451Z,20.15
2022-09-07T22:18:50.803Z,20.20
2022-09-07T22:21:24.131Z,20.18
2022-09-07T22:23:54.351Z,20.18
2022-09-07T22:26:23.414Z,20.18
2022-09-07T22:28:51.146Z,20.14
2022-09-07T22:31:21.517Z,20.15
2022-09-07T22:33:49.992Z,20.12
2022-09-07T22:36:19.862Z,20.12
2022-09-07T22:38:49.418Z,20.12
2022-09-07T22:41:19.634Z,20.11
2022-09-07T22:43:47.618Z,20.07
2022-09-07T22:46:15.007Z,20.05
2022-09-07T22:48:43.022Z,20.03
2022-09-07T22:51:11.425Z,19.97
2022-09-07T22:53:40.683Z,19.93
2022-09-07T22:56:19.832Z,19.85
2022-09-07T22:59:01.518Z,19.80
2022-09-07T23:01:30.294Z,19.77
2022-09-07T23:03:58.373Z,19.76
2022-09-07T23:06:34.548Z,19.70
2022-09-07T23:09:06.764Z,19.71
2022-09-07T23:11:34.183Z,19.70
2022-09-07T23:14:03.761Z,19.77
2022-09-07T23:16:31.160Z,19.80
2022-09-07T23:18:59.586Z,19.83
2022-09-07T23:21:27.653Z,19.85
2022-09-07T23:23:57.474Z,19.83
2022-09-07T23:26:26.664Z,19.85
2022-09-07T23:29:02.420Z,19.81
2022-09-07T23:31:31.401Z,19.76
2022-09-07T23:33:59.699Z,19.67
2022-09-07T23:36:27.058Z,19.63
2022-09-07T23:38:56.137Z,19.56
2022-09-07T23:41:24.937Z,19.52
2022-09-07T23:43:53.094Z,19.52
2022-09-07T23:46:21.110Z,19.49
2022-09-07T23:48:49.087Z,19.50
2022-09-07T23:51:21.249Z,19.52
2022-09-07T23:53:50.996Z,19.53
2022-09-07T23:56:18.218Z,19.53
2022-09-07T23:58:45.556Z,19.53
